Katerina L — 3FQL2 — position and weather

sailwx.info

Track history (hours):
 
Tides and Currents Weather Stations Pressure Air Temp Water Temp Dewpoint Dewpoint Depression Visibility Wind Speed Wind Dir Waves Ship Positions

Katerina L

Last reported at 2016-Aug-23 02:06 UTC. Time now 2016-Aug-24 12:02 UTC.
Position N 37°11' E 025°49'.

Length 91 m; draft 5.6 m.

Type: Tanker. MMSI: 356460000.

Date/timePositionNaut miles runAvg speedWind from/ knotsBaromVisibWave heightAir tempDewpointWater temp
2016-Aug-23 02:06N 37°11' E 025°49'4 8.1
2016-Aug-23 01:34N 37°13' E 025°44'11 8.0
2016-Aug-23 00:15N 37°15' E 025°31'5 7.8
2016-Aug-22 23:33N 37°16' E 025°24'8 8.0
2016-Aug-22 22:34N 37°17' E 025°14'11 7.9
2016-Aug-22 21:12N 37°18' E 025°01'5 7.7
2016-Aug-22 20:33N 37°19' E 024°55'7 7.2
2016-Aug-22 19:33N 37°22' E 024°47'39 7.7
2016-Aug-22 14:32N 37°34' E 024°00'7 7.5
2016-Aug-22 13:34N 37°37' E 023°52'7 7.2
2016-Aug-22 12:33N 37°40' E 023°43'8 7.6
2016-Aug-22 11:34N 37°46' E 023°39'8 7.8
2016-Aug-22 10:33N 37°54' E 023°36'6 6.3
2016-Aug-22 09:34N 37°59' E 023°33'3 3.2
2016-Aug-22 08:33N 38°02' E 023°36'0 0.0
2016-Aug-22 07:34N 38°02' E 023°36'0 0.0
2016-Aug-22 06:32N 38°02' E 023°36'0 0.0
2016-Aug-22 05:32N 38°02' E 023°36'0 0.0
2016-Aug-22 04:32N 38°02' E 023°36'0 0.0
2016-Aug-22 03:32N 38°02' E 023°36'0 0.0
2016-Aug-22 02:32N 38°02' E 023°36'0 0.0
2016-Aug-22 01:32N 38°02' E 023°36'0 0.0
2016-Aug-22 00:32N 38°02' E 023°36'0 0.0
2016-Aug-21 23:32N 38°02' E 023°36'0 0.0
2016-Aug-21 22:32N 38°02' E 023°36'0 0.0
2016-Aug-21 21:32N 38°02' E 023°36'0 0.0
2016-Aug-21 20:26N 38°02' E 023°36'0 0.0
2016-Aug-21 19:32N 38°02' E 023°36'0 0.0
2016-Aug-21 18:32N 38°02' E 023°36'0 0.0
2016-Aug-21 17:32N 38°02' E 023°36'0 0.0
2016-Aug-21 16:23N 38°02' E 023°36'0 0.0
2016-Aug-21 15:32N 38°02' E 023°36'0 0.0
2016-Aug-21 14:32N 38°02' E 023°36'0 0.0
2016-Aug-21 13:32N 38°02' E 023°36'0 0.0
2016-Aug-21 12:31N 38°02' E 023°36'0 0.0
2016-Aug-21 11:31N 38°02' E 023°36'0 0.0
2016-Aug-21 10:31N 38°02' E 023°36'0 0.0
2016-Aug-21 09:31N 38°02' E 023°36'0 0.0
2016-Aug-21 08:31N 38°02' E 023°36'0 0.0
2016-Aug-21 07:31N 38°02' E 023°36'0 0.0
2016-Aug-21 06:31N 38°02' E 023°36'0 0.0
2016-Aug-21 05:31N 38°02' E 023°36'0 0.0
2016-Aug-21 04:31N 38°02' E 023°36'0 0.0
2016-Aug-21 03:31N 38°02' E 023°36'0 0.0
2016-Aug-21 02:31N 38°02' E 023°36'0 0.0
2016-Aug-21 01:31N 38°02' E 023°36'0 0.0
2016-Aug-21 00:31N 38°02' E 023°36'0 0.0
2016-Aug-20 23:31N 38°02' E 023°36'0 0.0
2016-Aug-20 22:31N 38°02' E 023°36'0 0.0
2016-Aug-20 21:31N 38°02' E 023°36'0 0.0
2016-Aug-20 20:31N 38°02' E 023°36'0 0.0
2016-Aug-20 19:31N 38°02' E 023°36'0 0.2
2016-Aug-20 18:33N 38°02' E 023°36'3 2.7
2016-Aug-20 17:33N 38°01' E 023°32'0 0.1
2016-Aug-20 16:33N 38°01' E 023°32'0 0.0
2016-Aug-20 15:33N 38°01' E 023°32'0 0.0
2016-Aug-20 14:33N 38°01' E 023°32'0 0.0
2016-Aug-20 13:33N 38°01' E 023°32'0 0.0
2016-Aug-20 12:33N 38°01' E 023°32'0 0.0
2016-Aug-20 11:33N 38°01' E 023°32'0 0.0
2016-Aug-20 10:33N 38°01' E 023°32'0 0.0
2016-Aug-20 09:33N 38°01' E 023°32'0 0.0
2016-Aug-20 08:33N 38°01' E 023°32'0 0.0
2016-Aug-20 07:33N 38°01' E 023°32'0 0.0
2016-Aug-20 06:33N 38°01' E 023°32'0 0.0
2016-Aug-20 05:33N 38°01' E 023°32'0 0.0
2016-Aug-20 04:33N 38°01' E 023°32'0 0.0
2016-Aug-20 03:33N 38°01' E 023°32'0 0.0
2016-Aug-20 02:33N 38°01' E 023°32'0 0.0
2016-Aug-20 01:33N 38°01' E 023°32'0 0.0
2016-Aug-20 00:30N 38°01' E 023°32'0 0.0
2016-Aug-19 23:33N 38°01' E 023°32'0 0.0
2016-Aug-19 22:33N 38°01' E 023°32'0 0.0
2016-Aug-19 21:33N 38°01' E 023°32'0 0.0
2016-Aug-19 20:33N 38°01' E 023°32'0 0.0
2016-Aug-19 19:33N 38°01' E 023°32'0 0.0
2016-Aug-19 18:33N 38°01' E 023°32'0 0.0
2016-Aug-19 17:33N 38°01' E 023°32'0 0.0
2016-Aug-19 16:33N 38°01' E 023°32'0 0.0
2016-Aug-19 15:33N 38°01' E 023°32'0 0.0
2016-Aug-19 14:33N 38°01' E 023°32'0 0.0
2016-Aug-19 13:33N 38°01' E 023°32'0 0.0
2016-Aug-19 12:33N 38°01' E 023°32'0 0.1
2016-Aug-19 11:33N 38°01' E 023°32'0 0.1
2016-Aug-19 10:30N 38°01' E 023°32'0 0.0
2016-Aug-19 09:33N 38°01' E 023°32'0 0.0
2016-Aug-19 08:33N 38°01' E 023°32'0 0.0
2016-Aug-19 07:33N 38°01' E 023°32'0 0.0
2016-Aug-19 06:33N 38°01' E 023°32'0 0.0
2016-Aug-19 05:33N 38°01' E 023°32'0 0.0
2016-Aug-19 04:33N 38°01' E 023°32'0 0.0
2016-Aug-19 03:33N 38°01' E 023°32'0 0.0
2016-Aug-19 02:33N 38°01' E 023°32'0 0.0
2016-Aug-19 01:33N 38°01' E 023°32'0 0.0
2016-Aug-19 00:33N 38°01' E 023°32'0 0.0
2016-Aug-18 23:33N 38°01' E 023°32'0 0.0
2016-Aug-18 22:33N 38°01' E 023°32'0 0.0
2016-Aug-18 21:33N 38°01' E 023°32'0 0.0
2016-Aug-18 20:33N 38°01' E 023°32'0 0.0
2016-Aug-18 19:30N 38°01' E 023°32'0 0.0
2016-Aug-18 18:33N 38°01' E 023°32'0 0.0
2016-Aug-18 17:33N 38°01' E 023°32'0 0.0
2016-Aug-18 16:33N 38°01' E 023°32'0 0.0
2016-Aug-18 15:33N 38°01' E 023°32'0 0.0
2016-Aug-18 14:33N 38°01' E 023°32'0 0.0
2016-Aug-18 13:33N 38°01' E 023°32'0 0.0
2016-Aug-18 12:33N 38°01' E 023°32'0 0.0
2016-Aug-18 11:33N 38°01' E 023°32'0 0.0
2016-Aug-18 10:33N 38°01' E 023°32'0 0.0
2016-Aug-18 09:33N 38°01' E 023°32'0 0.0
2016-Aug-18 08:33N 38°01' E 023°32'0 0.1
2016-Aug-18 07:33N 38°01' E 023°32'0 0.0
2016-Aug-18 06:33N 38°01' E 023°32'0 0.0
2016-Aug-18 05:33N 38°01' E 023°32'0 0.0
2016-Aug-18 04:30N 38°01' E 023°32'0 0.0
2016-Aug-18 03:33N 38°01' E 023°32'0 0.0
2016-Aug-18 02:33N 38°01' E 023°32'0 0.0
2016-Aug-18 01:33N 38°01' E 023°32'0 0.0
2016-Aug-18 00:33N 38°01' E 023°32'0 0.0
2016-Aug-17 23:33N 38°01' E 023°32'0 0.0
2016-Aug-17 22:33N 38°01' E 023°32'0 0.1
2016-Aug-17 21:33N 38°01' E 023°32'0 0.0
2016-Aug-17 20:30N 38°01' E 023°32'0 0.0
2016-Aug-17 19:33N 38°01' E 023°32'0 0.0
2016-Aug-17 18:33N 38°01' E 023°32'0 0.0
2016-Aug-17 17:33N 38°01' E 023°32'0 0.0
2016-Aug-17 16:33N 38°01' E 023°32'0 0.0
2016-Aug-17 15:33N 38°01' E 023°32'0 0.0
2016-Aug-17 14:33N 38°01' E 023°32'0 0.1
2016-Aug-17 13:33N 38°01' E 023°32'0 0.0
2016-Aug-17 12:33N 38°01' E 023°32'0 0.0
2016-Aug-17 11:33N 38°01' E 023°32'0 0.0
2016-Aug-17 10:33N 38°01' E 023°32'0 0.0
2016-Aug-17 09:33N 38°01' E 023°32'0 0.0
2016-Aug-17 08:33N 38°01' E 023°32'0 0.0
2016-Aug-17 07:33N 38°01' E 023°32'0 0.0
2016-Aug-17 06:33N 38°01' E 023°32'0 0.1
2016-Aug-17 05:33N 38°01' E 023°32'0 0.0
2016-Aug-17 04:30N 38°01' E 023°32'0 0.0
2016-Aug-17 03:33N 38°01' E 023°32'0 0.0
2016-Aug-17 02:30N 38°01' E 023°32'0 0.1
2016-Aug-17 01:33N 38°01' E 023°32'0 0.0
2016-Aug-17 00:33N 38°01' E 023°32'0 0.0
2016-Aug-16 23:33N 38°01' E 023°32'0 0.0
2016-Aug-16 22:33N 38°01' E 023°32'0 0.0
2016-Aug-16 21:33N 38°01' E 023°32'0 0.0
2016-Aug-16 20:30N 38°01' E 023°32'0 0.0
2016-Aug-16 19:33N 38°01' E 023°32'0 0.0
2016-Aug-16 18:33N 38°01' E 023°32'0 0.0
2016-Aug-16 17:33N 38°01' E 023°32'0 0.0
2016-Aug-16 16:33N 38°01' E 023°32'4 3.8
2016-Aug-16 15:33N 37°58' E 023°33'5 4.7
2016-Aug-16 14:33N 37°54' E 023°37'8 7.6
2016-Aug-16 13:33N 37°47' E 023°41'8 8.0
2016-Aug-16 12:33N 37°40' E 023°46'8 7.9
2016-Aug-16 11:33N 37°36' E 023°55'45 6.4
2016-Aug-16 04:33N 37°22' E 024°48'7 7.4
2016-Aug-16 03:33N 37°18' E 024°56'8 7.1
2016-Aug-16 02:27N 37°18' E 025°06'6 7.2
2016-Aug-16 01:33N 37°17' E 025°14'7 7.2
2016-Aug-16 00:33N 37°16' E 025°23'14 6.2
2016-Aug-15 22:16N 37°13' E 025°41'4 5.5
2016-Aug-15 21:33N 37°13' E 025°46'  
2016-Aug-13 13:11N 34°36' E 032°29'5 7.2
2016-Aug-13 12:31N 34°34' E 032°35'7 7.1
2016-Aug-13 11:33N 34°32' E 032°43'7 7.4
2016-Aug-13 10:33N 34°30' E 032°51'8 7.8
2016-Aug-13 09:33N 34°27' E 032°60'8 7.8
2016-Aug-13 08:33N 34°24' E 033°09'8 7.6
2016-Aug-13 07:33N 34°22' E 033°18'15 7.3
2016-Aug-13 05:28N 34°17' E 033°35'9 7.6
2016-Aug-13 04:20N 34°14' E 033°45'6 7.8
2016-Aug-13 03:33N 34°11' E 033°52'8 7.8
2016-Aug-13 02:31N 34°09' E 034°01'  
Track history (hours):
 
Tides and Currents Weather Stations Pressure Air Temp Water Temp Dewpoint Dewpoint Depression Visibility Wind Speed Wind Dir Waves Ship Positions

Katerina L

Last reported at 2016-Aug-23 02:06 UTC. Time now 2016-Aug-24 12:02 UTC.
Position N 37°11' E 025°49'.

Length 91 m; draft 5.6 m.

Type: Tanker. MMSI: 356460000.

Date/timePositionNaut miles runAvg speedWind from/ knotsBaromVisibWave heightAir tempDewpointWater temp
2016-Aug-23 02:06N 37°11' E 025°49'4 8.1
2016-Aug-23 01:34N 37°13' E 025°44'11 8.0
2016-Aug-23 00:15N 37°15' E 025°31'5 7.8
2016-Aug-22 23:33N 37°16' E 025°24'8 8.0
2016-Aug-22 22:34N 37°17' E 025°14'11 7.9
2016-Aug-22 21:12N 37°18' E 025°01'5 7.7
2016-Aug-22 20:33N 37°19' E 024°55'7 7.2
2016-Aug-22 19:33N 37°22' E 024°47'39 7.7
2016-Aug-22 14:32N 37°34' E 024°00'7 7.5
2016-Aug-22 13:34N 37°37' E 023°52'7 7.2
2016-Aug-22 12:33N 37°40' E 023°43'8 7.6
2016-Aug-22 11:34N 37°46' E 023°39'8 7.8
2016-Aug-22 10:33N 37°54' E 023°36'6 6.3
2016-Aug-22 09:34N 37°59' E 023°33'3 3.2
2016-Aug-22 08:33N 38°02' E 023°36'0 0.0
2016-Aug-22 07:34N 38°02' E 023°36'0 0.0
2016-Aug-22 06:32N 38°02' E 023°36'0 0.0
2016-Aug-22 05:32N 38°02' E 023°36'0 0.0
2016-Aug-22 04:32N 38°02' E 023°36'0 0.0
2016-Aug-22 03:32N 38°02' E 023°36'0 0.0
2016-Aug-22 02:32N 38°02' E 023°36'0 0.0
2016-Aug-22 01:32N 38°02' E 023°36'0 0.0
2016-Aug-22 00:32N 38°02' E 023°36'0 0.0
2016-Aug-21 23:32N 38°02' E 023°36'0 0.0
2016-Aug-21 22:32N 38°02' E 023°36'0 0.0
2016-Aug-21 21:32N 38°02' E 023°36'0 0.0
2016-Aug-21 20:26N 38°02' E 023°36'0 0.0
2016-Aug-21 19:32N 38°02' E 023°36'0 0.0
2016-Aug-21 18:32N 38°02' E 023°36'0 0.0
2016-Aug-21 17:32N 38°02' E 023°36'0 0.0
2016-Aug-21 16:23N 38°02' E 023°36'0 0.0
2016-Aug-21 15:32N 38°02' E 023°36'0 0.0
2016-Aug-21 14:32N 38°02' E 023°36'0 0.0
2016-Aug-21 13:32N 38°02' E 023°36'0 0.0
2016-Aug-21 12:31N 38°02' E 023°36'0 0.0
2016-Aug-21 11:31N 38°02' E 023°36'0 0.0
2016-Aug-21 10:31N 38°02' E 023°36'0 0.0
2016-Aug-21 09:31N 38°02' E 023°36'0 0.0
2016-Aug-21 08:31N 38°02' E 023°36'0 0.0
2016-Aug-21 07:31N 38°02' E 023°36'0 0.0
2016-Aug-21 06:31N 38°02' E 023°36'0 0.0
2016-Aug-21 05:31N 38°02' E 023°36'0 0.0
2016-Aug-21 04:31N 38°02' E 023°36'0 0.0
2016-Aug-21 03:31N 38°02' E 023°36'0 0.0
2016-Aug-21 02:31N 38°02' E 023°36'0 0.0
2016-Aug-21 01:31N 38°02' E 023°36'0 0.0
2016-Aug-21 00:31N 38°02' E 023°36'0 0.0
2016-Aug-20 23:31N 38°02' E 023°36'0 0.0
2016-Aug-20 22:31N 38°02' E 023°36'0 0.0
2016-Aug-20 21:31N 38°02' E 023°36'0 0.0
2016-Aug-20 20:31N 38°02' E 023°36'0 0.0
2016-Aug-20 19:31N 38°02' E 023°36'0 0.2
2016-Aug-20 18:33N 38°02' E 023°36'3 2.7
2016-Aug-20 17:33N 38°01' E 023°32'0 0.1
2016-Aug-20 16:33N 38°01' E 023°32'0 0.0
2016-Aug-20 15:33N 38°01' E 023°32'0 0.0
2016-Aug-20 14:33N 38°01' E 023°32'0 0.0
2016-Aug-20 13:33N 38°01' E 023°32'0 0.0
2016-Aug-20 12:33N 38°01' E 023°32'0 0.0
2016-Aug-20 11:33N 38°01' E 023°32'0 0.0
2016-Aug-20 10:33N 38°01' E 023°32'0 0.0
2016-Aug-20 09:33N 38°01' E 023°32'0 0.0
2016-Aug-20 08:33N 38°01' E 023°32'0 0.0
2016-Aug-20 07:33N 38°01' E 023°32'0 0.0
2016-Aug-20 06:33N 38°01' E 023°32'0 0.0
2016-Aug-20 05:33N 38°01' E 023°32'0 0.0
2016-Aug-20 04:33N 38°01' E 023°32'0 0.0
2016-Aug-20 03:33N 38°01' E 023°32'0 0.0
2016-Aug-20 02:33N 38°01' E 023°32'0 0.0
2016-Aug-20 01:33N 38°01' E 023°32'0 0.0
2016-Aug-20 00:30N 38°01' E 023°32'0 0.0
2016-Aug-19 23:33N 38°01' E 023°32'0 0.0
2016-Aug-19 22:33N 38°01' E 023°32'0 0.0
2016-Aug-19 21:33N 38°01' E 023°32'0 0.0
2016-Aug-19 20:33N 38°01' E 023°32'0 0.0
2016-Aug-19 19:33N 38°01' E 023°32'0 0.0
2016-Aug-19 18:33N 38°01' E 023°32'0 0.0
2016-Aug-19 17:33N 38°01' E 023°32'0 0.0
2016-Aug-19 16:33N 38°01' E 023°32'0 0.0
2016-Aug-19 15:33N 38°01' E 023°32'0 0.0
2016-Aug-19 14:33N 38°01' E 023°32'0 0.0
2016-Aug-19 13:33N 38°01' E 023°32'0 0.0
2016-Aug-19 12:33N 38°01' E 023°32'0 0.1
2016-Aug-19 11:33N 38°01' E 023°32'0 0.1
2016-Aug-19 10:30N 38°01' E 023°32'0 0.0
2016-Aug-19 09:33N 38°01' E 023°32'0 0.0
2016-Aug-19 08:33N 38°01' E 023°32'0 0.0
2016-Aug-19 07:33N 38°01' E 023°32'0 0.0
2016-Aug-19 06:33N 38°01' E 023°32'0 0.0
2016-Aug-19 05:33N 38°01' E 023°32'0 0.0
2016-Aug-19 04:33N 38°01' E 023°32'0 0.0
2016-Aug-19 03:33N 38°01' E 023°32'0 0.0
2016-Aug-19 02:33N 38°01' E 023°32'0 0.0
2016-Aug-19 01:33N 38°01' E 023°32'0 0.0
2016-Aug-19 00:33N 38°01' E 023°32'0 0.0
2016-Aug-18 23:33N 38°01' E 023°32'0 0.0
2016-Aug-18 22:33N 38°01' E 023°32'0 0.0
2016-Aug-18 21:33N 38°01' E 023°32'0 0.0
2016-Aug-18 20:33N 38°01' E 023°32'0 0.0
2016-Aug-18 19:30N 38°01' E 023°32'0 0.0
2016-Aug-18 18:33N 38°01' E 023°32'0 0.0
2016-Aug-18 17:33N 38°01' E 023°32'0 0.0
2016-Aug-18 16:33N 38°01' E 023°32'0 0.0
2016-Aug-18 15:33N 38°01' E 023°32'0 0.0
2016-Aug-18 14:33N 38°01' E 023°32'0 0.0
2016-Aug-18 13:33N 38°01' E 023°32'0 0.0
2016-Aug-18 12:33N 38°01' E 023°32'0 0.0
2016-Aug-18 11:33N 38°01' E 023°32'0 0.0
2016-Aug-18 10:33N 38°01' E 023°32'0 0.0
2016-Aug-18 09:33N 38°01' E 023°32'0 0.0
2016-Aug-18 08:33N 38°01' E 023°32'0 0.1
2016-Aug-18 07:33N 38°01' E 023°32'0 0.0
2016-Aug-18 06:33N 38°01' E 023°32'0 0.0
2016-Aug-18 05:33N 38°01' E 023°32'0 0.0
2016-Aug-18 04:30N 38°01' E 023°32'0 0.0
2016-Aug-18 03:33N 38°01' E 023°32'0 0.0
2016-Aug-18 02:33N 38°01' E 023°32'0 0.0
2016-Aug-18 01:33N 38°01' E 023°32'0 0.0
2016-Aug-18 00:33N 38°01' E 023°32'0 0.0
2016-Aug-17 23:33N 38°01' E 023°32'0 0.0
2016-Aug-17 22:33N 38°01' E 023°32'0 0.1
2016-Aug-17 21:33N 38°01' E 023°32'0 0.0
2016-Aug-17 20:30N 38°01' E 023°32'0 0.0
2016-Aug-17 19:33N 38°01' E 023°32'0 0.0
2016-Aug-17 18:33N 38°01' E 023°32'0 0.0
2016-Aug-17 17:33N 38°01' E 023°32'0 0.0
2016-Aug-17 16:33N 38°01' E 023°32'0 0.0
2016-Aug-17 15:33N 38°01' E 023°32'0 0.0
2016-Aug-17 14:33N 38°01' E 023°32'0 0.1
2016-Aug-17 13:33N 38°01' E 023°32'0 0.0
2016-Aug-17 12:33N 38°01' E 023°32'0 0.0
2016-Aug-17 11:33N 38°01' E 023°32'0 0.0
2016-Aug-17 10:33N 38°01' E 023°32'0 0.0
2016-Aug-17 09:33N 38°01' E 023°32'0 0.0
2016-Aug-17 08:33N 38°01' E 023°32'0 0.0
2016-Aug-17 07:33N 38°01' E 023°32'0 0.0
2016-Aug-17 06:33N 38°01' E 023°32'0 0.1
2016-Aug-17 05:33N 38°01' E 023°32'0 0.0
2016-Aug-17 04:30N 38°01' E 023°32'0 0.0
2016-Aug-17 03:33N 38°01' E 023°32'0 0.0
2016-Aug-17 02:30N 38°01' E 023°32'0 0.1
2016-Aug-17 01:33N 38°01' E 023°32'0 0.0
2016-Aug-17 00:33N 38°01' E 023°32'0 0.0
2016-Aug-16 23:33N 38°01' E 023°32'0 0.0
2016-Aug-16 22:33N 38°01' E 023°32'0 0.0
2016-Aug-16 21:33N 38°01' E 023°32'0 0.0
2016-Aug-16 20:30N 38°01' E 023°32'0 0.0
2016-Aug-16 19:33N 38°01' E 023°32'0 0.0
2016-Aug-16 18:33N 38°01' E 023°32'0 0.0
2016-Aug-16 17:33N 38°01' E 023°32'0 0.0
2016-Aug-16 16:33N 38°01' E 023°32'4 3.8
2016-Aug-16 15:33N 37°58' E 023°33'5 4.7
2016-Aug-16 14:33N 37°54' E 023°37'8 7.6
2016-Aug-16 13:33N 37°47' E 023°41'8 8.0
2016-Aug-16 12:33N 37°40' E 023°46'8 7.9
2016-Aug-16 11:33N 37°36' E 023°55'45 6.4
2016-Aug-16 04:33N 37°22' E 024°48'7 7.4
2016-Aug-16 03:33N 37°18' E 024°56'8 7.1
2016-Aug-16 02:27N 37°18' E 025°06'6 7.2
2016-Aug-16 01:33N 37°17' E 025°14'7 7.2
2016-Aug-16 00:33N 37°16' E 025°23'14 6.2
2016-Aug-15 22:16N 37°13' E 025°41'4 5.5
2016-Aug-15 21:33N 37°13' E 025°46'  
2016-Aug-13 13:11N 34°36' E 032°29'5 7.2
2016-Aug-13 12:31N 34°34' E 032°35'7 7.1
2016-Aug-13 11:33N 34°32' E 032°43'7 7.4
2016-Aug-13 10:33N 34°30' E 032°51'8 7.8
2016-Aug-13 09:33N 34°27' E 032°60'8 7.8
2016-Aug-13 08:33N 34°24' E 033°09'8 7.6
2016-Aug-13 07:33N 34°22' E 033°18'15 7.3
2016-Aug-13 05:28N 34°17' E 033°35'9 7.6
2016-Aug-13 04:20N 34°14' E 033°45'6 7.8
2016-Aug-13 03:33N 34°11' E 033°52'8 7.8
2016-Aug-13 02:31N 34°09' E 034°01'  

Dump ship's entire track history